Time;durP1;ratioP1;P1;durP2;ratioP2;P2;SDS_P1;SDS_P2;PMS_P1;PMS_P2;Temp;Humidity;BMP_temperature;BMP_pressure;BME280_temperature;BME280_humidity;BME280_pressure;Samples;Min_cycle;Max_cycle;Signal;HPM_P1;HPM_P2
2023/06/07 00:00:45;;;;;;;9.48;5.30;;;13.40;99.90;;;;;;5070819;28;20179;-64
2023/06/07 00:03:11;;;;;;;12.07;5.65;;;13.40;99.90;;;;;;5053070;28;20168;-65
2023/06/07 00:05:38;;;;;;;9.05;5.20;;;13.20;99.90;;;;;;5070868;28;20740;-66
2023/06/07 00:08:06;;;;;;;11.63;4.95;;;13.20;99.90;;;;;;5070699;28;20216;-64
2023/06/07 00:10:33;;;;;;;14.75;5.90;;;13.10;99.90;;;;;;5070755;28;20190;-66
2023/06/07 00:12:59;;;;;;;11.10;5.55;;;13.00;99.90;;;;;;5071011;28;20726;-66
2023/06/07 00:15:25;;;;;;;9.00;5.43;;;13.00;99.90;;;;;;5070944;28;20172;-66
2023/06/07 00:17:51;;;;;;;11.80;5.60;;;12.90;99.90;;;;;;5074462;28;20260;-63
2023/06/07 00:20:16;;;;;;;9.18;5.13;;;12.90;99.90;;;;;;5074855;28;20195;-65
2023/06/07 00:22:43;;;;;;;10.53;5.27;;;12.80;99.90;;;;;;5074821;28;20737;-65
2023/06/07 00:25:09;;;;;;;11.23;5.65;;;12.80;99.90;;;;;;5074706;28;20658;-65
2023/06/07 00:27:35;;;;;;;9.73;5.43;;;12.70;99.90;;;;;;5074865;28;20290;-64
2023/06/07 00:30:03;;;;;;;11.55;5.85;;;12.60;99.90;;;;;;5074604;28;20226;-65
2023/06/07 00:32:29;;;;;;;11.00;5.85;;;12.60;99.90;;;;;;5074711;28;20233;-65
2023/06/07 00:34:54;;;;;;;12.07;5.68;;;12.60;99.90;;;;;;5074541;28;20707;-65
2023/06/07 00:37:20;;;;;;;9.33;5.83;;;12.50;99.90;;;;;;5074617;28;20504;-64
2023/06/07 00:39:46;;;;;;;15.73;6.27;;;12.40;99.90;;;;;;5074415;28;20187;-65
2023/06/07 00:42:11;;;;;;;11.60;5.93;;;12.50;99.90;;;;;;5056647;28;20172;-64
2023/06/07 00:44:37;;;;;;;9.23;5.47;;;12.40;99.90;;;;;;5074385;28;20182;-65
2023/06/07 00:47:03;;;;;;;13.18;5.53;;;12.50;99.90;;;;;;5074441;28;20204;-64
2023/06/07 00:49:29;;;;;;;8.13;5.30;;;12.40;99.90;;;;;;5074324;28;20770;-64
2023/06/07 00:51:55;;;;;;;12.30;5.60;;;12.50;99.90;;;;;;5074252;28;20659;-64
2023/06/07 00:54:21;;;;;;;12.68;5.20;;;12.40;99.90;;;;;;5074123;28;20169;-64
2023/06/07 00:56:49;;;;;;;11.15;5.68;;;12.40;99.90;;;;;;5074058;28;20279;-65
2023/06/07 00:59:19;;;;;;;12.17;5.40;;;12.40;99.90;;;;;;5074214;28;20631;-65
2023/06/07 01:01:47;;;;;;;9.83;5.77;;;12.40;99.90;;;;;;5074084;28;20176;-64
2023/06/07 01:04:12;;;;;;;8.60;5.00;;;12.40;99.90;;;;;;5073969;28;20187;-65
2023/06/07 01:06:38;;;;;;;9.40;5.23;;;12.30;99.90;;;;;;5073875;28;20196;-64
2023/06/07 01:09:12;;;;;;;9.20;5.30;;;12.20;99.90;;;;;;5073842;28;20180;-64
2023/06/07 01:11:40;;;;;;;9.50;4.97;;;12.20;99.90;;;;;;5073873;28;20207;-62
2023/06/07 01:14:06;;;;;;;11.63;5.50;;;12.20;99.90;;;;;;5073825;28;20634;-63
2023/06/07 01:16:32;;;;;;;11.57;5.38;;;12.30;99.90;;;;;;5073825;28;20173;-64
2023/06/07 01:18:57;;;;;;;10.77;5.30;;;12.30;99.90;;;;;;5073691;28;20223;-64
2023/06/07 01:21:23;;;;;;;9.07;5.23;;;12.30;99.90;;;;;;5073654;28;20169;-65
2023/06/07 01:23:49;;;;;;;10.23;4.93;;;12.20;99.90;;;;;;5073977;28;20171;-61
2023/06/07 01:26:16;;;;;;;9.68;4.85;;;12.20;99.90;;;;;;5073460;28;20173;-66
2023/06/07 01:28:44;;;;;;;10.27;5.20;;;12.20;99.90;;;;;;5073684;28;20259;-64
2023/06/07 01:31:12;;;;;;;8.40;5.15;;;12.20;99.90;;;;;;5073579;28;20279;-64
2023/06/07 01:33:38;;;;;;;11.55;5.15;;;12.10;99.90;;;;;;5073562;28;20165;-64
2023/06/07 01:36:06;;;;;;;9.40;4.87;;;12.10;99.90;;;;;;5067174;28;20221;-64
2023/06/07 01:38:32;;;;;;;12.00;5.17;;;12.10;99.90;;;;;;5065638;28;20173;-64
2023/06/07 01:40:58;;;;;;;9.93;5.10;;;12.10;99.90;;;;;;5073369;28;20173;-64
2023/06/07 01:43:25;;;;;;;10.97;4.80;;;12.00;99.90;;;;;;5073454;28;20177;-64
2023/06/07 01:45:52;;;;;;;10.57;4.93;;;12.00;99.90;;;;;;5073312;28;20161;-65
2023/06/07 01:48:18;;;;;;;8.97;5.23;;;12.00;99.90;;;;;;5073065;28;20236;-64
2023/06/07 01:50:44;;;;;;;9.27;5.20;;;12.00;99.90;;;;;;5073177;28;20203;-64
2023/06/07 01:53:10;;;;;;;11.33;5.03;;;12.00;99.90;;;;;;5073292;28;20200;-65
2023/06/07 01:55:37;;;;;;;10.63;5.03;;;12.00;99.90;;;;;;5073146;28;20169;-64
2023/06/07 01:58:14;;;;;;;9.63;4.80;;;10.50;99.90;;;;;;5073052;28;20183;-65
2023/06/07 02:00:59;;;;;;;9.70;4.70;;;11.90;99.90;;;;;;5073071;28;20176;-65
2023/06/07 02:03:38;;;;;;;8.07;4.83;;;11.80;99.90;;;;;;5072989;28;20169;-65
2023/06/07 02:06:08;;;;;;;7.13;4.53;;;11.80;99.90;;;;;;5072815;28;20683;-65
2023/06/07 02:08:38;;;;;;;11.60;4.80;;;11.90;99.90;;;;;;5072994;28;20701;-64
2023/06/07 02:11:05;;;;;;;6.97;4.60;;;11.90;99.90;;;;;;5072731;28;20176;-65
2023/06/07 02:13:35;;;;;;;9.50;4.90;;;11.90;99.90;;;;;;5072818;28;20172;-65
2023/06/07 02:16:05;;;;;;;11.43;5.07;;;11.80;99.90;;;;;;5072835;28;20176;-64
2023/06/07 02:18:32;;;;;;;10.00;4.53;;;11.70;99.90;;;;;;5072689;28;20685;-64
2023/06/07 02:20:58;;;;;;;9.33;4.70;;;11.80;99.90;;;;;;5072800;28;20187;-67
2023/06/07 02:23:24;;;;;;;8.33;4.27;;;11.80;99.90;;;;;;5054543;28;20176;-67
2023/06/07 02:25:50;;;;;;;8.87;4.67;;;12.00;99.90;;;;;;5072523;28;20180;-66
2023/06/07 02:28:15;;;;;;;11.80;5.10;;;11.80;99.90;;;;;;5072407;28;20248;-67
2023/06/07 02:30:41;;;;;;;10.47;4.40;;;11.80;99.90;;;;;;5072423;28;20166;-68
2023/06/07 02:33:13;;;;;;;10.63;4.53;;;11.80;99.90;;;;;;5072358;28;20176;-65
2023/06/07 02:35:48;;;;;;;9.77;5.23;;;11.80;99.90;;;;;;5069164;28;20645;-65
2023/06/07 02:38:14;;;;;;;9.77;4.87;;;11.80;99.90;;;;;;5034478;28;20181;-65
2023/06/07 02:40:39;;;;;;;9.40;4.57;;;11.90;99.90;;;;;;5051701;28;20649;-65
2023/06/07 02:43:05;;;;;;;12.70;5.23;;;11.90;99.90;;;;;;5052442;28;20180;-65
2023/06/07 02:45:31;;;;;;;9.20;4.83;;;11.90;99.90;;;;;;5052213;28;20758;-65
2023/06/07 02:47:57;;;;;;;9.37;4.87;;;12.00;99.90;;;;;;5052143;28;20614;-65
2023/06/07 02:50:22;;;;;;;9.57;4.60;;;11.90;99.90;;;;;;5052159;28;20166;-65
2023/06/07 02:52:48;;;;;;;10.17;4.83;;;12.00;99.90;;;;;;5052407;28;20205;-65
2023/06/07 02:55:14;;;;;;;7.07;4.60;;;12.00;99.90;;;;;;5066412;28;20215;-64
2023/06/07 02:57:40;;;;;;;8.53;4.57;;;12.00;99.90;;;;;;5052791;28;20245;-64
2023/06/07 03:00:13;;;;;;;13.43;5.20;;;12.00;99.90;;;;;;5052105;28;20181;-64
2023/06/07 03:02:39;;;;;;;9.40;4.97;;;12.10;99.90;;;;;;5051819;28;20173;-64
2023/06/07 03:05:06;;;;;;;11.73;4.97;;;12.10;99.90;;;;;;5033856;28;20178;-64
2023/06/07 03:07:35;;;;;;;11.87;5.00;;;12.10;99.90;;;;;;5051925;28;20295;-64
2023/06/07 03:10:02;;;;;;;13.97;5.27;;;12.10;99.90;;;;;;5051596;28;20252;-64
2023/06/07 03:12:28;;;;;;;8.13;4.23;;;12.20;99.90;;;;;;5052250;28;20174;-64
2023/06/07 03:14:53;;;;;;;7.80;4.60;;;12.20;99.90;;;;;;5051788;28;20169;-65
2023/06/07 03:17:19;;;;;;;7.37;4.77;;;12.20;99.90;;;;;;5052961;28;20180;-64
2023/06/07 03:19:44;;;;;;;9.43;4.83;;;12.20;99.90;;;;;;5060081;28;20176;-64
2023/06/07 03:22:10;;;;;;;10.30;4.57;;;12.20;99.90;;;;;;5055473;28;20197;-63
2023/06/07 03:24:38;;;;;;;9.73;5.03;;;12.20;99.90;;;;;;5051623;28;20184;-63
2023/06/07 03:27:05;;;;;;;5.90;4.00;;;12.20;99.90;;;;;;5051780;28;20212;-64
2023/06/07 03:29:31;;;;;;;11.87;3.87;;;12.20;99.90;;;;;;5051582;28;20238;-64
2023/06/07 03:31:57;;;;;;;7.77;4.70;;;12.20;99.90;;;;;;5051678;28;20185;-64
2023/06/07 03:34:23;;;;;;;6.97;3.93;;;12.20;99.90;;;;;;5054723;28;20701;-63
2023/06/07 03:36:49;;;;;;;8.47;4.10;;;12.10;99.90;;;;;;5051446;28;20679;-63
2023/06/07 03:39:15;;;;;;;10.93;3.80;;;12.10;99.90;;;;;;5054565;28;20540;-63
2023/06/07 03:41:40;;;;;;;7.10;4.20;;;12.10;99.90;;;;;;5057251;28;20200;-63
2023/06/07 03:44:06;;;;;;;12.23;4.00;;;12.10;99.90;;;;;;5051416;28;20176;-64
2023/06/07 03:46:32;;;;;;;6.40;4.33;;;12.10;99.90;;;;;;5033036;28;20188;-64
2023/06/07 03:48:57;;;;;;;8.87;4.20;;;12.10;99.90;;;;;;5051075;28;20252;-63
2023/06/07 03:51:23;;;;;;;6.70;4.10;;;12.10;99.90;;;;;;5049998;28;20181;-63
2023/06/07 03:53:48;;;;;;;8.03;4.13;;;12.00;99.90;;;;;;5065329;28;20631;-63
2023/06/07 03:56:15;;;;;;;6.37;4.03;;;12.00;99.90;;;;;;5059821;28;20516;-63
2023/06/07 03:58:40;;;;;;;8.63;4.00;;;12.10;99.90;;;;;;5070864;28;20202;-64
2023/06/07 04:01:06;;;;;;;8.30;4.03;;;12.10;99.90;;;;;;5070821;28;20180;-64
2023/06/07 04:03:32;;;;;;;9.50;3.90;;;12.00;99.90;;;;;;5070979;28;20429;-64
2023/06/07 04:05:58;;;;;;;7.53;3.93;;;12.10;99.90;;;;;;5070747;28;20200;-64
2023/06/07 04:08:23;;;;;;;8.03;4.13;;;12.00;99.90;;;;;;5069445;28;20630;-64
2023/06/07 04:10:50;;;;;;;6.57;3.77;;;12.00;99.90;;;;;;5070812;28;20203;-66
2023/06/07 04:13:16;;;;;;;6.70;3.60;;;12.00;99.90;;;;;;5070724;28;20543;-65
2023/06/07 04:15:42;;;;;;;8.17;4.00;;;12.00;99.90;;;;;;5070796;28;20172;-65
2023/06/07 04:18:08;;;;;;;5.97;3.33;;;11.90;99.90;;;;;;5070797;28;20180;-64
2023/06/07 04:20:34;;;;;;;5.83;3.00;;;11.90;99.90;;;;;;5070688;28;20179;-64
2023/06/07 04:23:00;;;;;;;7.33;3.57;;;11.90;99.90;;;;;;5070821;28;20172;-66
2023/06/07 04:25:34;;;;;;;7.57;3.20;;;11.90;99.90;;;;;;5070916;28;20177;-66
2023/06/07 04:28:01;;;;;;;6.17;3.23;;;11.90;99.90;;;;;;5070597;28;20316;-67
2023/06/07 04:30:36;;;;;;;9.27;3.53;;;11.90;99.90;;;;;;5070733;28;20164;-65
2023/06/07 04:33:09;;;;;;;7.73;3.40;;;12.00;99.90;;;;;;5070503;28;20716;-66
2023/06/07 04:35:44;;;;;;;7.30;3.07;;;12.20;99.90;;;;;;5070618;28;20230;-65
2023/06/07 04:38:24;;;;;;;6.73;3.33;;;12.00;99.90;;;;;;5052503;28;20673;-65
2023/06/07 04:40:53;;;;;;;5.80;3.27;;;12.00;99.90;;;;;;5070502;28;20168;-63
2023/06/07 04:43:19;;;;;;;6.67;3.50;;;11.90;99.90;;;;;;5070343;28;20173;-64
2023/06/07 04:45:53;;;;;;;6.67;3.00;;;11.90;99.90;;;;;;5070415;28;20597;-63
2023/06/07 04:48:28;;;;;;;6.30;3.30;;;12.00;99.90;;;;;;5070446;28;20277;-64
2023/06/07 04:51:04;;;;;;;7.37;2.93;;;11.90;99.90;;;;;;5070488;28;20266;-64
2023/06/07 04:53:35;;;;;;;8.45;3.70;;;11.90;99.90;;;;;;5052384;28;20652;-63
2023/06/07 04:56:02;;;;;;;4.70;2.90;;;11.90;99.90;;;;;;5068751;28;20268;-63
2023/06/07 04:58:27;;;;;;;7.47;3.80;;;11.90;99.90;;;;;;5051025;28;20231;-63
2023/06/07 05:00:56;;;;;;;7.67;3.20;;;11.90;99.90;;;;;;5050337;28;20177;-64
2023/06/07 05:03:22;;;;;;;5.87;3.50;;;11.90;99.90;;;;;;5056622;28;20173;-64
2023/06/07 05:05:49;;;;;;;9.47;2.90;;;12.00;99.90;;;;;;5068792;28;20195;-64
2023/06/07 05:08:17;;;;;;;4.97;3.35;;;12.00;99.90;;;;;;5073822;28;20200;-66
2023/06/07 05:10:44;;;;;;;6.38;3.03;;;12.00;99.90;;;;;;5073917;28;20198;-64
2023/06/07 05:13:10;;;;;;;11.47;3.50;;;12.10;99.90;;;;;;5073875;28;20230;-63
2023/06/07 05:15:36;;;;;;;6.40;3.77;;;12.00;99.90;;;;;;5073884;28;20169;-64
2023/06/07 05:18:02;;;;;;;6.47;3.30;;;12.10;99.90;;;;;;5073799;28;20218;-64
2023/06/07 05:20:29;;;;;;;10.77;3.37;;;12.10;99.90;;;;;;5073687;28;20187;-63
2023/06/07 05:22:56;;;;;;;6.47;3.33;;;12.00;99.90;;;;;;5073637;28;20710;-63
2023/06/07 05:25:21;;;;;;;11.97;4.27;;;12.00;99.90;;;;;;5073627;28;20176;-64
2023/06/07 05:27:49;;;;;;;11.10;3.80;;;12.10;99.90;;;;;;5073457;28;20700;-64
2023/06/07 05:30:16;;;;;;;7.30;3.53;;;12.10;99.90;;;;;;5073489;28;20623;-63
2023/06/07 05:32:42;;;;;;;7.47;3.40;;;12.20;99.90;;;;;;5073430;28;20172;-64
2023/06/07 05:35:08;;;;;;;8.83;3.70;;;12.20;99.90;;;;;;5073392;28;20497;-64
2023/06/07 05:37:34;;;;;;;6.17;3.90;;;12.30;99.90;;;;;;5073340;28;20183;-64
2023/06/07 05:40:00;;;;;;;6.40;3.60;;;12.30;99.90;;;;;;5073507;28;20482;-63
2023/06/07 05:42:26;;;;;;;9.47;3.93;;;12.30;99.90;;;;;;5073289;28;20168;-63
2023/06/07 05:44:51;;;;;;;7.07;3.40;;;12.40;99.90;;;;;;5073315;28;20177;-65
2023/06/07 05:47:20;;;;;;;9.43;3.53;;;12.40;99.90;;;;;;5073212;28;20295;-65
2023/06/07 05:49:46;;;;;;;7.40;3.58;;;12.50;99.90;;;;;;5073117;28;20632;-65
2023/06/07 05:52:13;;;;;;;6.13;3.60;;;12.50;99.90;;;;;;5073072;28;20674;-65
2023/06/07 05:54:47;;;;;;;4.90;3.50;;;12.60;99.90;;;;;;5073258;28;20183;-66
2023/06/07 05:57:13;;;;;;;7.50;3.23;;;12.70;99.90;;;;;;5069085;28;20212;-66
2023/06/07 05:59:38;;;;;;;10.23;4.23;;;12.50;99.90;;;;;;5058804;28;20208;-65
2023/06/07 06:02:04;;;;;;;7.13;3.83;;;12.70;99.90;;;;;;5062942;28;20176;-65
2023/06/07 06:04:30;;;;;;;9.60;4.28;;;12.50;99.90;;;;;;5068352;28;20181;-65
2023/06/07 06:06:56;;;;;;;6.83;3.67;;;12.60;99.90;;;;;;5072302;28;20211;-66
2023/06/07 06:09:22;;;;;;;7.23;3.70;;;;;;;;;;5063141;28;20193;-67
2023/06/07 06:11:49;;;;;;;6.75;4.40;;;12.60;99.90;;;;;;5053633;28;20637;-67
2023/06/07 06:14:15;;;;;;;7.45;3.88;;;12.70;99.90;;;;;;5055733;28;20226;-66
2023/06/07 06:16:40;;;;;;;10.67;4.10;;;12.70;99.90;;;;;;5065820;28;20172;-65
2023/06/07 06:19:06;;;;;;;5.77;3.80;;;12.80;99.90;;;;;;5072646;28;20503;-66
2023/06/07 06:21:32;;;;;;;7.28;4.50;;;;;;;;;;5072550;28;20215;-66
2023/06/07 06:23:57;;;;;;;9.57;4.17;;;12.90;99.90;;;;;;5072705;28;20171;-64
2023/06/07 06:26:23;;;;;;;11.13;4.30;;;12.80;99.90;;;;;;5072555;28;20584;-68
2023/06/07 06:28:49;;;;;;;11.37;4.57;;;12.80;99.90;;;;;;5072608;28;20184;-64
2023/06/07 06:31:15;;;;;;;7.25;3.60;;;12.90;99.90;;;;;;5072367;28;20663;-64
2023/06/07 06:33:41;;;;;;;9.88;4.38;;;13.20;99.90;;;;;;5072266;28;20651;-65
2023/06/07 06:36:07;;;;;;;10.13;4.53;;;13.10;99.90;;;;;;5072303;28;20212;-64
2023/06/07 06:38:32;;;;;;;8.20;4.00;;;13.00;99.90;;;;;;5072514;28;20187;-64
2023/06/07 06:40:58;;;;;;;5.93;3.67;;;13.20;99.90;;;;;;5072282;28;20176;-64
2023/06/07 06:43:24;;;;;;;7.05;3.50;;;13.20;99.90;;;;;;5072387;28;20173;-62
2023/06/07 06:45:49;;;;;;;10.32;3.80;;;13.30;99.90;;;;;;5072288;28;20538;-65
2023/06/07 06:48:15;;;;;;;9.40;4.10;;;13.50;99.90;;;;;;5071968;28;20220;-61
2023/06/07 06:50:41;;;;;;;11.32;4.20;;;13.40;99.90;;;;;;5071870;28;20530;-62
2023/06/07 06:53:06;;;;;;;7.15;4.72;;;13.40;99.90;;;;;;5072170;28;20646;-62
2023/06/07 06:55:32;;;;;;;12.55;4.70;;;13.50;99.90;;;;;;5071917;28;20675;-62
2023/06/07 06:57:57;;;;;;;10.73;5.55;;;13.30;99.90;;;;;;5071741;28;20570;-62
2023/06/07 07:00:23;;;;;;;12.80;4.30;;;13.40;99.90;;;;;;5070162;28;20173;-63
2023/06/07 07:02:49;;;;;;;8.95;4.43;;;13.50;99.90;;;;;;5059731;28;20694;-66
2023/06/07 07:05:15;;;;;;;14.55;4.65;;;13.40;99.90;;;;;;5066162;28;20169;-66
2023/06/07 07:07:41;;;;;;;11.32;4.18;;;13.50;99.90;;;;;;5071536;28;21002;-65
2023/06/07 07:10:08;;;;;;;9.95;4.35;;;13.50;99.90;;;;;;5071628;28;20256;-65
2023/06/07 07:12:35;;;;;;;10.73;4.60;;;13.50;99.90;;;;;;5071739;28;20226;-69
2023/06/07 07:15:01;;;;;;;10.52;4.68;;;13.60;99.90;;;;;;5071560;28;20168;-67
2023/06/07 07:17:26;;;;;;;14.18;4.80;;;13.70;99.90;;;;;;5063393;28;20640;-68
2023/06/07 07:19:53;;;;;;;8.85;5.15;;;13.90;99.90;;;;;;5051403;28;20246;-68
2023/06/07 07:22:19;;;;;;;10.85;4.15;;;13.90;99.90;;;;;;5051780;28;20197;-68
2023/06/07 07:24:44;;;;;;;14.27;5.10;;;14.10;99.90;;;;;;5051376;28;20675;-68
2023/06/07 07:27:10;;;;;;;12.85;4.90;;;14.10;99.90;;;;;;5051279;28;20243;-65
2023/06/07 07:29:36;;;;;;;14.23;4.32;;;14.30;99.90;;;;;;5051403;28;20184;-66
2023/06/07 07:32:01;;;;;;;11.07;4.47;;;14.30;99.90;;;;;;5051324;28;20196;-64
2023/06/07 07:34:27;;;;;;;10.98;4.55;;;14.30;99.90;;;;;;5051048;28;20217;-66
2023/06/07 07:36:53;;;;;;;15.52;4.68;;;14.10;99.90;;;;;;5051042;28;20759;-64
2023/06/07 07:39:21;;;;;;;9.63;4.38;;;14.40;99.90;;;;;;5053146;28;20246;-60
2023/06/07 07:41:47;;;;;;;8.50;4.50;;;14.50;99.90;;;;;;5070972;28;20753;-63
2023/06/07 07:44:13;;;;;;;11.63;4.45;;;14.30;99.90;;;;;;5071098;28;20256;-63
2023/06/07 07:46:38;;;;;;;11.77;4.93;;;14.40;99.90;;;;;;5069595;28;20169;-63
2023/06/07 07:49:04;;;;;;;10.20;4.57;;;14.60;99.90;;;;;;5058115;28;20185;-62
2023/06/07 07:51:30;;;;;;;13.93;5.00;;;15.10;99.90;;;;;;5052069;28;20204;-69
2023/06/07 07:53:56;;;;;;;8.60;4.80;;;15.00;99.90;;;;;;5061292;28;20177;-63
2023/06/07 07:56:22;;;;;;;11.02;5.22;;;14.80;99.90;;;;;;5037315;28;20508;-63
2023/06/07 07:58:49;;;;;;;10.80;5.28;;;15.20;99.90;;;;;;5070550;28;20160;-64
2023/06/07 08:01:16;;;;;;;14.55;5.30;;;15.30;99.90;;;;;;5058006;28;20172;-64
2023/06/07 08:03:42;;;;;;;10.27;5.10;;;;;;;;;;5051017;28;20173;-65
2023/06/07 08:06:08;;;;;;;10.05;5.03;;;;;;;;;;5051998;28;20187;-64
2023/06/07 08:08:34;;;;;;;15.15;4.82;;;15.50;99.90;;;;;;5066796;28;20283;-65
2023/06/07 08:11:00;;;;;;;12.68;5.10;;;17.20;99.90;;;;;;5067683;28;20265;-64
2023/06/07 08:13:26;;;;;;;8.85;4.95;;;15.50;99.90;;;;;;5056367;28;20184;-62
2023/06/07 08:15:52;;;;;;;10.20;5.18;;;15.60;99.90;;;;;;5055582;28;20192;-62
2023/06/07 08:18:17;;;;;;;10.38;4.90;;;15.80;99.90;;;;;;5054059;28;20177;-64
2023/06/07 08:20:43;;;;;;;9.85;5.07;;;16.00;99.90;;;;;;5050745;28;20349;-64
2023/06/07 08:23:09;;;;;;;14.60;5.40;;;15.90;99.90;;;;;;5050504;28;20651;-66
2023/06/07 08:25:35;;;;;;;15.30;5.72;;;;;;;;;;5050633;28;20173;-66
2023/06/07 08:28:02;;;;;;;8.98;5.35;;;16.40;99.90;;;;;;5050592;28;20213;-65
2023/06/07 08:30:28;;;;;;;15.77;6.22;;;16.30;99.90;;;;;;5054951;28;20183;-66
2023/06/07 08:32:54;;;;;;;9.88;5.22;;;16.90;99.90;;;;;;5050637;28;20177;-64
2023/06/07 08:35:20;;;;;;;8.75;5.10;;;16.60;99.90;;;;;;5050529;28;20216;-64
2023/06/07 08:37:45;;;;;;;10.60;5.63;;;16.70;99.90;;;;;;5051631;28;20174;-64
2023/06/07 08:40:11;;;;;;;12.15;5.15;;;17.10;99.90;;;;;;5053642;28;20264;-64
2023/06/07 08:42:40;;;;;;;14.13;5.75;;;17.10;99.90;;;;;;5054168;28;20169;-64
2023/06/07 08:45:06;;;;;;;35.10;6.60;;;17.00;99.90;;;;;;5054011;28;20220;-64
2023/06/07 08:47:33;;;;;;;13.13;5.72;;;17.10;99.90;;;;;;5054169;28;20686;-64
2023/06/07 08:50:00;;;;;;;9.70;5.28;;;16.60;99.90;;;;;;5054249;28;20260;-64
2023/06/07 08:52:26;;;;;;;11.63;5.03;;;16.50;99.90;;;;;;5054271;28;20707;-63
2023/06/07 08:54:58;;;;;;;12.75;5.05;;;16.50;99.90;;;;;;5054207;28;20901;-64
2023/06/07 08:57:24;;;;;;;9.32;5.00;;;17.10;99.90;;;;;;5053963;28;20181;-64
2023/06/07 08:59:51;;;;;;;11.45;5.15;;;18.00;99.90;;;;;;5053977;28;20260;-65
2023/06/07 09:02:17;;;;;;;8.20;5.03;;;17.80;99.90;;;;;;5054170;28;20181;-64
2023/06/07 09:04:43;;;;;;;10.75;5.28;;;18.30;99.90;;;;;;5054038;28;20166;-63
2023/06/07 09:07:09;;;;;;;8.80;5.78;;;18.20;99.90;;;;;;5053735;28;20698;-64
2023/06/07 09:09:35;;;;;;;13.93;5.22;;;18.60;99.90;;;;;;5053791;28;20700;-63
2023/06/07 09:12:01;;;;;;;13.57;5.30;;;19.00;99.90;;;;;;5053823;28;20263;-65
2023/06/07 09:14:30;;;;;;;9.48;5.10;;;18.50;99.90;;;;;;5053670;28;20680;-65
2023/06/07 09:16:58;;;;;;;13.32;5.32;;;18.70;99.90;;;;;;5053753;28;20164;-64
2023/06/07 09:19:34;;;;;;;11.07;4.75;;;18.60;99.90;;;;;;5035699;28;20565;-63
2023/06/07 09:22:04;;;;;;;11.55;5.32;;;16.60;99.90;;;;;;5053650;28;20303;-64
2023/06/07 09:24:31;;;;;;;11.15;5.55;;;18.10;99.90;;;;;;5053697;28;20204;-64
2023/06/07 09:26:58;;;;;;;14.75;5.32;;;18.30;99.90;;;;;;5053441;28;20275;-64
2023/06/07 09:29:27;;;;;;;15.90;5.43;;;17.40;99.90;;;;;;5053577;28;20227;-64
2023/06/07 09:31:54;;;;;;;13.32;5.53;;;17.60;99.90;;;;;;5053722;28;20260;-64
2023/06/07 09:34:26;;;;;;;12.90;5.75;;;16.80;99.90;;;;;;5053147;28;20184;-63
2023/06/07 09:36:54;;;;;;;12.15;5.13;;;18.70;99.90;;;;;;5053181;28;20707;-64
2023/06/07 09:39:25;;;;;;;10.30;4.95;;;19.50;99.90;;;;;;5053418;28;20161;-64
2023/06/07 09:41:55;;;;;;;13.02;5.70;;;19.50;99.90;;;;;;5053418;28;20178;-62
2023/06/07 09:44:26;;;;;;;10.18;5.13;;;19.70;99.90;;;;;;5053242;28;20656;-63
2023/06/07 09:46:53;;;;;;;9.68;5.53;;;20.00;99.90;;;;;;5053081;28;20204;-63
2023/06/07 09:49:35;;;;;;;13.02;5.43;;;20.10;99.90;;;;;;5051869;28;20185;-63
2023/06/07 09:52:02;;;;;;;13.75;5.10;;;20.20;99.90;;;;;;5053149;28;20177;-63
2023/06/07 09:54:39;;;;;;;16.60;5.88;;;19.90;99.90;;;;;;5053345;28;20173;-63
2023/06/07 09:57:09;;;;;;;11.23;5.32;;;20.10;99.90;;;;;;5053055;28;20180;-63
2023/06/07 09:59:37;;;;;;;12.43;5.35;;;20.40;99.90;;;;;;5053040;28;20184;-63
2023/06/07 10:02:21;;;;;;;10.70;5.53;;;20.50;99.90;;;;;;5052903;28;20169;-63
2023/06/07 10:04:46;;;;;;;14.05;6.20;;;20.60;99.90;;;;;;5053080;28;20161;-64
2023/06/07 10:07:13;;;;;;;15.00;6.28;;;20.30;99.90;;;;;;5052842;28;20208;-63
2023/06/07 10:09:40;;;;;;;12.77;6.40;;;20.40;99.90;;;;;;5052855;28;20169;-63
2023/06/07 10:12:07;;;;;;;15.68;5.65;;;20.60;99.90;;;;;;5052678;28;20192;-63
2023/06/07 10:14:34;;;;;;;15.18;5.43;;;20.70;99.90;;;;;;5052666;28;20169;-63
2023/06/07 10:17:05;;;;;;;10.32;5.68;;;20.50;99.90;;;;;;5052522;28;20255;-63
2023/06/07 10:19:42;;;;;;;10.45;6.05;;;20.80;99.90;;;;;;5052834;28;20189;-63
2023/06/07 10:22:20;;;;;;;10.35;5.63;;;21.20;99.90;;;;;;5052651;28;20160;-64
2023/06/07 10:25:08;;;;;;;12.73;5.45;;;21.30;99.90;;;;;;5052612;28;20261;-63
2023/06/07 10:27:50;;;;;;;9.10;5.35;;;21.50;99.90;;;;;;5034609;28;20255;-63
2023/06/07 10:30:17;;;;;;;10.32;5.63;;;21.50;99.90;;;;;;5052577;28;20177;-64
2023/06/07 10:32:46;;;;;;;11.30;5.45;;;21.60;99.90;;;;;;5052625;28;20178;-63
2023/06/07 10:35:12;;;;;;;16.95;5.30;;;22.00;99.90;;;;;;5052296;28;20209;-63
2023/06/07 10:37:38;;;;;;;14.60;5.55;;;21.30;99.90;;;;;;5052102;28;20181;-63
2023/06/07 10:40:10;;;;;;;14.43;5.13;;;21.90;99.90;;;;;;5052319;28;20173;-63
2023/06/07 10:42:37;;;;;;;14.13;5.50;;;21.90;99.90;;;;;;5035313;28;20183;-63
2023/06/07 10:45:04;;;;;;;12.82;5.13;;;22.00;99.90;;;;;;5052234;28;20197;-64
2023/06/07 10:47:30;;;;;;;15.45;5.88;;;22.10;99.90;;;;;;5033988;28;20201;-64
2023/06/07 10:49:57;;;;;;;11.18;5.60;;;22.20;99.90;;;;;;5052195;28;20187;-64
2023/06/07 10:52:25;;;;;;;11.52;5.90;;;22.10;99.90;;;;;;5055066;28;20173;-64
2023/06/07 10:54:51;;;;;;;12.30;5.70;;;22.10;99.90;;;;;;5068175;28;20181;-63
2023/06/07 10:57:37;;;;;;;12.80;5.75;;;22.40;99.90;;;;;;5068736;28;20179;-63
2023/06/07 11:00:35;;;;;;;10.15;5.22;;;22.80;99.90;;;;;;5051394;28;20166;-64
2023/06/07 11:03:16;;;;;;;8.88;5.35;;;23.10;99.90;;;;;;5051655;28;20632;-64
2023/06/07 11:05:53;;;;;;;10.05;5.32;;;23.20;99.90;;;;;;5051885;28;20200;-63
2023/06/07 11:08:29;;;;;;;9.80;5.80;;;22.90;99.90;;;;;;5051580;28;20205;-63
2023/06/07 11:11:01;;;;;;;13.48;5.60;;;23.30;99.90;;;;;;5066221;28;20168;-64
2023/06/07 11:13:46;;;;;;;13.43;5.72;;;23.10;99.90;;;;;;5071814;28;20172;-64
2023/06/07 11:16:24;;;;;;;12.02;4.65;;;23.10;99.90;;;;;;5053365;28;20262;-63
2023/06/07 11:19:05;;;;;;;9.10;4.93;;;23.20;99.90;;;;;;5071357;28;20172;-63
2023/06/07 11:22:06;;;;;;;9.68;4.88;;;22.80;99.90;;;;;;5071312;28;20192;-64
2023/06/07 11:24:36;;;;;;;9.23;4.88;;;23.10;99.90;;;;;;5071380;28;20246;-64
2023/06/07 11:27:02;;;;;;;12.65;5.03;;;23.20;99.90;;;;;;5071294;28;20274;-63
2023/06/07 11:29:28;;;;;;;8.80;4.80;;;24.50;99.90;;;;;;5071088;28;20636;-64
2023/06/07 11:32:01;;;;;;;8.48;4.57;;;24.30;99.90;;;;;;5071091;28;20531;-64
2023/06/07 11:34:31;;;;;;;7.80;5.28;;;24.00;99.90;;;;;;5071022;28;20179;-64
2023/06/07 11:37:08;;;;;;;11.73;5.38;;;24.00;99.90;;;;;;5071048;28;20709;-64
2023/06/07 11:39:34;;;;;;;6.65;4.63;;;24.30;99.90;;;;;;5071118;28;20259;-63
2023/06/07 11:42:02;;;;;;;8.75;5.00;;;24.30;99.90;;;;;;5071137;28;20281;-63
2023/06/07 11:44:28;;;;;;;10.88;4.95;;;24.60;99.90;;;;;;5070998;28;20176;-64
2023/06/07 11:46:55;;;;;;;13.90;4.78;;;24.50;99.90;;;;;;5071037;28;20192;-63
2023/06/07 11:49:23;;;;;;;13.00;5.13;;;25.20;99.90;;;;;;5071106;28;20211;-64
2023/06/07 11:51:49;;;;;;;11.05;4.90;;;25.20;99.90;;;;;;5070910;28;20177;-64
2023/06/07 11:54:14;;;;;;;13.30;4.82;;;24.70;99.90;;;;;;5070799;28;20726;-64
2023/06/07 11:56:42;;;;;;;14.80;5.35;;;25.20;99.90;;;;;;5070839;28;20255;-64
2023/06/07 11:59:10;;;;;;;13.10;5.20;;;25.00;99.90;;;;;;5070873;28;20161;-65
2023/06/07 12:01:39;;;;;;;9.90;5.20;;;25.30;99.90;;;;;;5052848;28;20635;-64
2023/06/07 12:04:09;;;;;;;12.15;5.03;;;24.10;99.90;;;;;;5070795;28;20192;-64
2023/06/07 12:06:35;;;;;;;11.63;4.90;;;24.50;99.90;;;;;;5070915;28;20185;-64
2023/06/07 12:09:01;;;;;;;9.75;4.70;;;24.80;99.90;;;;;;5070820;28;20183;-64
2023/06/07 12:11:27;;;;;;;10.40;4.38;;;25.30;99.90;;;;;;5070190;28;20172;-63
2023/06/07 12:13:53;;;;;;;9.63;4.68;;;25.80;99.90;;;;;;5070669;28;20508;-64
2023/06/07 12:16:21;;;;;;;8.68;4.18;;;25.90;99.90;;;;;;5070670;28;20168;-63
2023/06/07 12:18:47;;;;;;;8.85;4.10;;;26.20;96.40;;;;;;5070852;28;20176;-64
2023/06/07 12:21:18;;;;;;;9.82;4.93;;;26.90;98.10;;;;;;5070700;28;20172;-64
2023/06/07 12:23:51;;;;;;;10.88;5.60;;;26.20;91.10;;;;;;5070717;28;20173;-64
2023/06/07 12:26:20;;;;;;;15.93;4.65;;;26.10;91.60;;;;;;5070819;28;20175;-64
2023/06/07 12:28:48;;;;;;;11.95;5.13;;;25.90;97.30;;;;;;5070758;28;20212;-64
2023/06/07 12:31:20;;;;;;;10.38;4.80;;;26.10;93.90;;;;;;5070744;28;20251;-64
2023/06/07 12:33:54;;;;;;;13.80;5.57;;;26.00;93.60;;;;;;5070562;28;20173;-64
2023/06/07 12:36:20;;;;;;;10.73;5.80;;;25.40;95.70;;;;;;5070363;28;20245;-64
2023/06/07 12:38:46;;;;;;;9.40;4.63;;;25.40;92.00;;;;;;5070595;28;20654;-64
2023/06/07 12:41:11;;;;;;;12.18;5.40;;;26.00;97.30;;;;;;5070600;28;20176;-64
2023/06/07 12:43:37;;;;;;;17.95;5.07;;;26.10;91.30;;;;;;5070567;28;20180;-64
2023/06/07 12:46:02;;;;;;;12.73;4.43;;;26.30;90.00;;;;;;5070509;28;20172;-64